Contacto @
curve curve curve curve

METEOROLOGÍA AERONÁUTICA

INFORMACIÓN METEOROLÓGICA

En este apartado aparece la información meteorológica aeronáutica que es utilizada en las prácticas de los alumnos de la Escuela de Pilotos de nuestro centro durante su formación, por lo que puede no ser actual y debe ser usada por su propia cuenta y riesgo. AERBRAVA no se hace responsable de su uso.

TIEMPO ACTUAL

Satélite meteorológico sat24.com

Servei Meteorològic de Catalunya
LEGE 110330Z 20019KT 9999 FEW040 14/09 Q0988
LEGE 110300Z 21024KT 9999 FEW040 14/08 Q0988
LEGE 110230Z 21020G32KT 9999 FEW040 13/08 Q0989
LEGE 110200Z 21020KT 9999 FEW040 13/07 Q0990
TAF AMD LEGE 110029Z 1100/1124 21012KT 9999 FEW030 TX16/1113Z TN05/1124Z
TEMPO 1100/1111 22020G34KT
PROB30
TEMPO 1104/1111 20022G43KT
TEMPO 1112/1119 4000 RA
BECMG 1110/1113 VRB04KT
National Weather service
Matrícula abierta Piloto RPAs - Drones - UAVs.
Lunes
11 Diciembre de 2017
Página cargada a las 03:59 UTC
Orto: 07:10 UTC
Ocaso: 16:14 UTC

2017/12/11 03:30 LEGE 110330Z 20019KT 9999 FEW040 14/09 Q0988


2017/12/11 00:35 TAF AMD LEGE 110029Z 1100/1124 21012KT 9999 FEW030 TX16/1113Z TN05/1124Z TEMPO 1100/1111 22020G34KT PROB30 TEMPO 1104/1111 20022G43KT TEMPO 1112/1119 4000 RA BECMG 1110/1113 VRB04KT
Sólo se muestran los aviones equipados con el sistema ADS-B en directo desde FlightRadar24
Aerbrava en el facebook Aerbrava en el youtube Aerbrava en el twitter Google+
Instagram tumblr flikr
logo inicio Nosotros | Mapa del sitio | Oportunidades profesionales | Privacidad | Contacte con nosotros | © 2017 AERBRAVA, SCP